createdAt,value
2023-09-06T00:00:02.957Z,0.00
2023-09-06T00:01:03.031Z,0.00
2023-09-06T00:02:02.961Z,0.00
2023-09-06T00:03:03.006Z,0.00
2023-09-06T00:04:03.025Z,0.00
2023-09-06T00:05:02.926Z,0.00
2023-09-06T00:06:02.889Z,0.00
2023-09-06T00:07:02.990Z,0.00
2023-09-06T00:08:02.868Z,0.00
2023-09-06T00:09:02.864Z,0.00
2023-09-06T00:10:02.903Z,0.00
2023-09-06T00:11:02.855Z,0.00
2023-09-06T00:12:02.828Z,0.00
2023-09-06T00:13:02.907Z,0.00
2023-09-06T00:14:02.828Z,0.00
2023-09-06T00:15:02.809Z,0.00
2023-09-06T00:16:02.805Z,0.00
2023-09-06T00:17:02.816Z,0.00
2023-09-06T00:18:02.828Z,0.00
2023-09-06T00:19:02.901Z,0.00
2023-09-06T00:20:02.741Z,0.00
2023-09-06T00:21:02.726Z,0.00
2023-09-06T00:22:02.749Z,0.00
2023-09-06T00:23:02.757Z,0.00
2023-09-06T00:24:02.689Z,0.00
2023-09-06T00:25:02.707Z,0.00
2023-09-06T00:26:02.670Z,0.00
2023-09-06T00:27:02.659Z,0.00
2023-09-06T00:28:02.774Z,0.00
2023-09-06T00:29:02.670Z,0.00
2023-09-06T00:30:02.658Z,0.00
2023-09-06T00:31:02.762Z,0.00
2023-09-06T00:32:02.604Z,0.00
2023-09-06T00:33:02.648Z,0.00
2023-09-06T00:34:02.666Z,0.00
2023-09-06T00:35:02.565Z,0.00
2023-09-06T00:36:02.582Z,0.00
2023-09-06T00:37:02.602Z,0.00
2023-09-06T00:38:02.541Z,0.00
2023-09-06T00:39:02.561Z,0.00
2023-09-06T00:40:02.648Z,0.00
2023-09-06T00:41:02.542Z,0.00
2023-09-06T00:42:02.493Z,0.00
2023-09-06T00:43:02.694Z,0.00
2023-09-06T00:44:02.543Z,0.00
2023-09-06T00:45:02.470Z,0.00
2023-09-06T00:46:02.652Z,0.00
2023-09-06T00:47:02.481Z,0.00
2023-09-06T00:48:02.560Z,0.00
2023-09-06T00:49:02.512Z,0.00
2023-09-06T00:50:02.411Z,0.00
2023-09-06T00:51:02.447Z,0.00
2023-09-06T00:52:02.438Z,0.00
2023-09-06T00:53:02.388Z,0.00
2023-09-06T00:54:02.397Z,0.00
2023-09-06T00:55:02.474Z,0.00
2023-09-06T00:56:02.342Z,0.00
2023-09-06T00:57:02.354Z,0.00
2023-09-06T00:58:02.347Z,0.00
2023-09-06T00:59:02.334Z,0.00
2023-09-06T01:00:02.309Z,0.00
2023-09-06T01:01:02.366Z,0.00
2023-09-06T01:02:02.449Z,0.00
2023-09-06T01:03:02.385Z,0.00
2023-09-06T01:04:02.353Z,0.00
2023-09-06T01:05:02.244Z,0.00
2023-09-06T01:06:02.282Z,0.00
2023-09-06T01:07:02.280Z,0.00
2023-09-06T01:08:02.214Z,0.00
2023-09-06T01:09:02.204Z,0.00
2023-09-06T01:10:02.292Z,0.00
2023-09-06T01:11:02.179Z,0.00
2023-09-06T01:12:02.161Z,0.00
2023-09-06T01:13:02.198Z,0.00
2023-09-06T01:14:02.143Z,0.00
2023-09-06T01:15:02.195Z,0.00
2023-09-06T01:16:02.143Z,0.00
2023-09-06T01:17:02.164Z,0.00
2023-09-06T01:18:02.153Z,0.00
2023-09-06T01:19:02.207Z,0.00
2023-09-06T01:20:02.106Z,0.00
2023-09-06T01:21:02.093Z,0.00
2023-09-06T01:22:02.071Z,0.00
2023-09-06T01:23:02.051Z,0.00
2023-09-06T01:24:02.033Z,0.00
2023-09-06T01:25:02.083Z,0.00
2023-09-06T01:26:02.012Z,0.00
2023-09-06T01:27:02.013Z,0.00
2023-09-06T01:28:02.062Z,0.00
2023-09-06T01:29:01.992Z,0.00
2023-09-06T01:30:02.009Z,0.00
2023-09-06T01:31:02.187Z,0.00
2023-09-06T01:32:02.016Z,0.00
2023-09-06T01:33:01.994Z,0.00
2023-09-06T01:34:02.109Z,0.00
2023-09-06T01:35:01.949Z,0.00
2023-09-06T01:36:01.899Z,0.00
2023-09-06T01:37:01.938Z,0.00
2023-09-06T01:38:01.914Z,0.00
2023-09-06T01:39:01.888Z,0.00
2023-09-06T01:40:01.936Z,0.00
2023-09-06T01:41:01.864Z,0.00
2023-09-06T01:42:01.844Z,0.00
2023-09-06T01:43:01.837Z,0.00
2023-09-06T01:44:01.926Z,0.00
2023-09-06T01:45:01.811Z,0.00
2023-09-06T01:46:01.897Z,0.00
2023-09-06T01:47:01.813Z,0.00
2023-09-06T01:48:01.809Z,0.00
2023-09-06T01:49:01.781Z,0.00
2023-09-06T01:50:01.800Z,0.00
2023-09-06T01:51:01.770Z,0.00
2023-09-06T01:52:01.740Z,0.00
2023-09-06T01:53:01.732Z,0.00
2023-09-06T01:54:01.719Z,0.00
2023-09-06T01:55:01.758Z,0.00
2023-09-06T01:56:01.730Z,0.00
2023-09-06T01:57:01.681Z,0.00
2023-09-06T01:58:01.700Z,0.00
2023-09-06T01:59:01.657Z,0.00
2023-09-06T02:00:01.644Z,0.00
2023-09-06T02:01:01.694Z,0.00
2023-09-06T02:02:01.679Z,0.00
2023-09-06T02:03:01.700Z,0.00
2023-09-06T02:04:01.752Z,0.00
2023-09-06T02:05:01.601Z,0.00
2023-09-06T02:06:01.625Z,0.00
2023-09-06T02:07:01.604Z,0.00
2023-09-06T02:08:01.566Z,0.00
2023-09-06T02:09:01.555Z,0.00
2023-09-06T02:10:01.578Z,0.00
2023-09-06T02:11:01.556Z,0.00
2023-09-06T02:12:01.533Z,0.00
2023-09-06T02:13:01.534Z,0.00
2023-09-06T02:14:01.495Z,0.00
2023-09-06T02:15:01.479Z,0.00
2023-09-06T02:16:01.574Z,0.00
2023-09-06T02:17:01.565Z,0.00
2023-09-06T02:18:01.507Z,0.00
2023-09-06T02:19:01.462Z,0.00
2023-09-06T02:20:01.427Z,0.00
2023-09-06T02:21:01.413Z,0.00
2023-09-06T02:22:01.489Z,0.00
2023-09-06T02:23:01.387Z,0.00
2023-09-06T02:24:01.381Z,0.00
2023-09-06T02:25:01.422Z,0.00
2023-09-06T02:26:01.363Z,0.00
2023-09-06T02:27:01.382Z,0.00
2023-09-06T02:28:01.354Z,0.00
2023-09-06T02:29:01.324Z,0.00
2023-09-06T02:30:01.315Z,0.00
2023-09-06T02:31:01.299Z,0.00
2023-09-06T02:32:01.443Z,0.00
2023-09-06T02:33:01.337Z,0.00
2023-09-06T02:34:01.294Z,0.00
2023-09-06T02:35:01.254Z,0.00
2023-09-06T02:36:01.247Z,0.00
2023-09-06T02:37:01.252Z,0.00
2023-09-06T02:38:01.275Z,0.00
2023-09-06T02:39:01.212Z,0.00
2023-09-06T02:40:01.217Z,0.00
2023-09-06T02:41:01.226Z,0.00
2023-09-06T02:42:01.185Z,0.00
2023-09-06T02:43:01.198Z,0.00
2023-09-06T02:44:01.156Z,0.00
2023-09-06T02:45:01.140Z,0.00
2023-09-06T02:46:01.185Z,0.00
2023-09-06T02:47:01.154Z,0.00
2023-09-06T02:48:01.196Z,0.00
2023-09-06T02:49:01.098Z,0.00
2023-09-06T02:50:01.088Z,0.00
2023-09-06T02:51:01.196Z,0.00
2023-09-06T02:52:01.091Z,0.00
2023-09-06T02:53:01.080Z,0.00
2023-09-06T02:54:01.067Z,0.00
2023-09-06T02:55:01.205Z,0.00
2023-09-06T02:56:01.030Z,0.00
2023-09-06T02:57:01.008Z,0.00
2023-09-06T02:58:01.082Z,0.00
2023-09-06T02:59:00.981Z,0.00
2023-09-06T03:00:01.045Z,0.00
2023-09-06T03:01:01.001Z,0.00
2023-09-06T03:02:00.991Z,0.00
2023-09-06T03:03:01.113Z,0.00
2023-09-06T03:04:01.021Z,0.00
2023-09-06T03:05:00.920Z,0.00
2023-09-06T03:06:00.945Z,0.00
2023-09-06T03:07:00.935Z,0.00
2023-09-06T03:08:00.922Z,0.00
2023-09-06T03:09:00.878Z,0.00
2023-09-06T03:10:01.020Z,0.00
2023-09-06T03:11:00.916Z,0.00
2023-09-06T03:12:00.855Z,0.00
2023-09-06T03:13:00.890Z,0.00
2023-09-06T03:14:00.833Z,0.00
2023-09-06T03:15:00.812Z,0.00
2023-09-06T03:16:01.327Z,0.00
2023-09-06T03:17:00.792Z,0.00
2023-09-06T03:18:00.818Z,0.00
2023-09-06T03:19:00.789Z,0.00
2023-09-06T03:20:00.895Z,0.00
2023-09-06T03:21:00.778Z,0.00
2023-09-06T03:22:00.758Z,0.00
2023-09-06T03:23:00.718Z,0.00
2023-09-06T03:24:00.711Z,0.00
2023-09-06T03:25:00.817Z,0.00
2023-09-06T03:26:00.716Z,0.00
2023-09-06T03:27:00.674Z,0.00
2023-09-06T03:28:00.727Z,0.00
2023-09-06T03:29:00.658Z,0.00
2023-09-06T03:30:00.721Z,0.00
2023-09-06T03:31:01.240Z,0.00
2023-09-06T03:32:00.736Z,0.00
2023-09-06T03:33:00.633Z,0.00
2023-09-06T03:34:00.599Z,0.00
2023-09-06T03:35:00.596Z,0.00
2023-09-06T03:36:00.654Z,0.00
2023-09-06T03:37:00.563Z,0.00
2023-09-06T03:38:00.658Z,0.00
2023-09-06T03:39:00.574Z,0.00
2023-09-06T03:40:00.580Z,0.00
2023-09-06T03:41:00.538Z,0.00
2023-09-06T03:42:00.536Z,0.00
2023-09-06T03:43:00.503Z,0.00
2023-09-06T03:44:00.562Z,0.00
2023-09-06T03:45:00.485Z,0.00
2023-09-06T03:46:00.468Z,0.00
2023-09-06T03:47:00.599Z,0.00
2023-09-06T03:48:00.560Z,0.00
2023-09-06T03:49:00.536Z,0.00
2023-09-06T03:50:00.494Z,0.00
2023-09-06T03:51:00.433Z,0.00
2023-09-06T03:52:00.420Z,0.00
2023-09-06T03:53:00.408Z,0.00
2023-09-06T03:54:00.385Z,0.00
2023-09-06T03:55:00.370Z,0.00
2023-09-06T03:56:00.400Z,0.00
2023-09-06T03:57:00.346Z,0.00
2023-09-06T03:58:00.451Z,0.00
2023-09-06T03:59:00.325Z,0.00
2023-09-06T04:00:00.374Z,0.00
2023-09-06T04:01:00.385Z,0.00
2023-09-06T04:02:00.375Z,0.00
2023-09-06T04:03:00.445Z,0.00
2023-09-06T04:04:00.355Z,0.00
2023-09-06T04:05:00.306Z,0.00
2023-09-06T04:06:00.255Z,0.00
2023-09-06T04:07:00.265Z,0.00
2023-09-06T04:08:00.407Z,0.00
2023-09-06T04:09:00.434Z,0.00
2023-09-06T04:10:00.209Z,0.00
2023-09-06T04:11:00.212Z,0.00
2023-09-06T04:12:00.190Z,0.00
2023-09-06T04:13:00.244Z,0.00
2023-09-06T04:14:00.197Z,0.00
2023-09-06T04:15:00.169Z,0.00
2023-09-06T04:16:00.151Z,0.00
2023-09-06T04:17:00.221Z,0.00
2023-09-06T04:18:00.272Z,0.00
2023-09-06T04:19:00.118Z,0.00
2023-09-06T04:20:00.124Z,0.00
2023-09-06T04:21:00.090Z,0.00
2023-09-06T04:22:00.081Z,0.00
2023-09-06T04:23:00.108Z,0.00
2023-09-06T04:24:00.087Z,0.00
2023-09-06T04:25:00.048Z,0.00
2023-09-06T04:26:00.135Z,0.00
2023-09-06T04:27:00.025Z,0.00
2023-09-06T04:28:00.014Z,0.00
2023-09-06T04:29:00.014Z,0.00
2023-09-06T04:30:00.064Z,0.00
2023-09-06T04:31:00.113Z,0.00
2023-09-06T04:32:00.036Z,0.00
2023-09-06T04:32:59.987Z,0.00
2023-09-06T04:33:59.947Z,0.00
2023-09-06T04:35:00.041Z,0.00
2023-09-06T04:35:59.924Z,0.00
2023-09-06T04:36:59.913Z,0.00
2023-09-06T04:37:59.935Z,0.00
2023-09-06T04:38:59.888Z,5.62
2023-09-06T04:39:59.909Z,5.62
2023-09-06T04:40:59.987Z,5.62
2023-09-06T04:41:59.857Z,5.62
2023-09-06T04:42:59.842Z,5.62
2023-09-06T04:43:59.886Z,5.62
2023-09-06T04:44:59.832Z,5.62
2023-09-06T04:45:59.858Z,5.62
2023-09-06T04:46:59.817Z,5.62
2023-09-06T04:47:59.814Z,5.62
2023-09-06T04:48:59.817Z,5.62
2023-09-06T04:49:59.771Z,5.62
2023-09-06T04:50:59.761Z,11.25
2023-09-06T04:51:59.754Z,11.25
2023-09-06T04:52:59.735Z,11.25
2023-09-06T04:53:59.764Z,11.25
2023-09-06T04:54:59.713Z,11.25
2023-09-06T04:55:59.703Z,11.25
2023-09-06T04:56:59.766Z,11.25
2023-09-06T04:57:59.711Z,11.25
2023-09-06T04:58:59.702Z,11.25
2023-09-06T04:59:59.659Z,11.25
2023-09-06T05:00:59.676Z,11.25
2023-09-06T05:01:59.663Z,11.25
2023-09-06T05:02:59.716Z,11.25
2023-09-06T05:03:59.894Z,16.88
2023-09-06T05:04:59.606Z,16.88
2023-09-06T05:05:59.640Z,16.88
2023-09-06T05:06:59.580Z,16.88
2023-09-06T05:07:59.572Z,16.88
2023-09-06T05:08:59.585Z,16.88
2023-09-06T05:09:59.552Z,16.88
2023-09-06T05:10:59.546Z,16.88
2023-09-06T05:11:59.556Z,16.88
2023-09-06T05:12:59.539Z,16.88
2023-09-06T05:13:59.541Z,16.88
2023-09-06T05:14:59.495Z,16.88
2023-09-06T05:15:59.519Z,16.88
2023-09-06T05:16:59.473Z,16.88
2023-09-06T05:17:59.561Z,16.88
2023-09-06T05:18:59.473Z,22.50
2023-09-06T05:19:59.437Z,22.50
2023-09-06T05:20:59.429Z,22.50
2023-09-06T05:21:59.413Z,22.50
2023-09-06T05:22:59.436Z,22.50
2023-09-06T05:23:59.414Z,22.50
2023-09-06T05:24:59.398Z,22.50
2023-09-06T05:25:59.398Z,22.50
2023-09-06T05:26:59.365Z,22.50
2023-09-06T05:27:59.417Z,22.50
2023-09-06T05:28:59.337Z,22.50
2023-09-06T05:29:59.466Z,22.50
2023-09-06T05:30:59.380Z,22.50
2023-09-06T05:31:59.334Z,22.50
2023-09-06T05:32:59.375Z,22.50
2023-09-06T05:33:59.330Z,22.50
2023-09-06T05:34:59.270Z,22.50
2023-09-06T05:35:59.256Z,22.50
2023-09-06T05:36:59.256Z,22.50
2023-09-06T05:37:59.323Z,22.50
2023-09-06T05:38:59.236Z,22.50
2023-09-06T05:39:59.220Z,22.50
2023-09-06T05:40:59.247Z,22.50
2023-09-06T05:41:59.192Z,22.50
2023-09-06T05:42:59.205Z,22.50
2023-09-06T05:43:59.219Z,22.50
2023-09-06T05:44:59.165Z,22.50
2023-09-06T05:45:59.176Z,22.50
2023-09-06T05:46:59.204Z,28.12
2023-09-06T05:47:59.237Z,28.12
2023-09-06T05:48:59.120Z,28.12
2023-09-06T05:49:59.229Z,28.12
2023-09-06T05:50:59.087Z,28.12
2023-09-06T05:51:59.081Z,28.12
2023-09-06T05:52:59.106Z,28.12
2023-09-06T05:53:59.122Z,28.12
2023-09-06T05:54:59.054Z,28.12
2023-09-06T05:55:59.103Z,28.12
2023-09-06T05:56:59.028Z,28.12
2023-09-06T05:57:59.015Z,28.12
2023-09-06T05:58:59.029Z,28.12
2023-09-06T05:59:58.997Z,28.12
2023-09-06T06:00:58.984Z,28.12
2023-09-06T06:01:59.118Z,33.75
2023-09-06T06:02:59.005Z,33.75
2023-09-06T06:03:59.144Z,33.75
2023-09-06T06:04:59.045Z,33.75
2023-09-06T06:05:58.957Z,33.75
2023-09-06T06:06:58.923Z,33.75
2023-09-06T06:07:59.063Z,33.75
2023-09-06T06:08:58.931Z,33.75
2023-09-06T06:09:58.892Z,33.75
2023-09-06T06:10:58.936Z,33.75
2023-09-06T06:11:58.873Z,39.38
2023-09-06T06:12:58.860Z,39.38
2023-09-06T06:14:08.669Z,39.38
2023-09-06T06:14:59.860Z,39.38
2023-09-06T06:15:58.848Z,39.38
2023-09-06T06:16:58.861Z,39.38
2023-09-06T06:17:58.826Z,39.38
2023-09-06T06:18:58.816Z,39.38
2023-09-06T06:19:58.806Z,45.00
2023-09-06T06:20:58.768Z,45.00
2023-09-06T06:22:00.091Z,45.00
2023-09-06T06:22:58.758Z,45.00
2023-09-06T06:23:58.751Z,45.00
2023-09-06T06:24:58.748Z,45.00
2023-09-06T06:25:58.745Z,45.00
2023-09-06T06:26:58.704Z,45.00
2023-09-06T06:27:58.785Z,50.62
2023-09-06T06:28:58.847Z,50.62
2023-09-06T06:29:58.740Z,50.62
2023-09-06T06:30:58.690Z,50.62
2023-09-06T06:31:58.771Z,50.62
2023-09-06T06:32:58.744Z,50.62
2023-09-06T06:33:58.619Z,50.62
2023-09-06T06:34:58.638Z,56.25
2023-09-06T06:35:58.618Z,56.25
2023-09-06T06:36:58.592Z,56.25
2023-09-06T06:37:58.687Z,56.25
2023-09-06T06:38:58.571Z,56.25
2023-09-06T06:39:58.556Z,56.25
2023-09-06T06:40:58.619Z,56.25
2023-09-06T06:41:58.547Z,56.25
2023-09-06T06:42:58.553Z,56.25
2023-09-06T06:43:58.700Z,61.88
2023-09-06T06:44:58.500Z,61.88
2023-09-06T06:45:58.566Z,61.88
2023-09-06T06:46:58.596Z,61.88
2023-09-06T06:47:58.538Z,61.88
2023-09-06T06:48:58.476Z,61.88
2023-09-06T06:49:58.516Z,61.88
2023-09-06T06:50:58.462Z,67.50
2023-09-06T06:51:58.427Z,67.50
2023-09-06T06:52:58.487Z,67.50
2023-09-06T06:53:58.427Z,67.50
2023-09-06T06:54:58.390Z,67.50
2023-09-06T06:55:58.463Z,67.50
2023-09-06T06:56:58.382Z,67.50
2023-09-06T06:57:58.392Z,67.50
2023-09-06T06:58:58.422Z,67.50
2023-09-06T06:59:58.330Z,67.50
2023-09-06T07:00:58.341Z,67.50
2023-09-06T07:01:58.338Z,67.50
2023-09-06T07:02:58.360Z,67.50
2023-09-06T07:03:58.363Z,67.50
2023-09-06T07:04:58.386Z,78.75
2023-09-06T07:05:58.277Z,73.12
2023-09-06T07:06:58.259Z,73.12
2023-09-06T07:07:58.304Z,73.12
2023-09-06T07:08:58.257Z,73.12
2023-09-06T07:09:58.249Z,73.12
2023-09-06T07:10:58.280Z,73.12
2023-09-06T07:11:58.203Z,73.12
2023-09-06T07:12:58.228Z,73.12
2023-09-06T07:13:58.260Z,73.12
2023-09-06T07:14:58.171Z,73.12
2023-09-06T07:15:58.310Z,73.12
2023-09-06T07:16:58.201Z,73.12
2023-09-06T07:17:58.367Z,78.75
2023-09-06T07:18:58.176Z,78.75
2023-09-06T07:19:58.148Z,78.75
2023-09-06T07:20:58.115Z,78.75
2023-09-06T07:21:58.100Z,78.75
2023-09-06T07:22:58.113Z,78.75
2023-09-06T07:23:58.081Z,78.75
2023-09-06T07:24:58.085Z,78.75
2023-09-06T07:25:58.098Z,78.75
2023-09-06T07:26:58.045Z,78.75
2023-09-06T07:27:58.041Z,78.75
2023-09-06T07:28:58.085Z,78.75
2023-09-06T07:29:58.035Z,78.75
2023-09-06T07:30:58.019Z,78.75
2023-09-06T07:31:57.990Z,78.75
2023-09-06T07:32:58.126Z,84.38
2023-09-06T07:33:58.034Z,84.38
2023-09-06T07:34:58.015Z,84.38
2023-09-06T07:35:57.945Z,84.38
2023-09-06T07:36:57.936Z,84.38
2023-09-06T07:37:58.000Z,84.38
2023-09-06T07:38:57.918Z,84.38
2023-09-06T07:39:57.950Z,90.00
2023-09-06T07:40:57.966Z,90.00
2023-09-06T07:41:57.902Z,84.38
2023-09-06T07:42:57.874Z,84.38
2023-09-06T07:43:57.859Z,84.38
2023-09-06T07:44:57.845Z,90.00
2023-09-06T07:45:57.849Z,90.00
2023-09-06T07:46:57.950Z,90.00
2023-09-06T07:47:57.966Z,90.00
2023-09-06T07:48:58.131Z,84.38
2023-09-06T07:49:57.843Z,84.38
2023-09-06T07:50:57.785Z,84.38
2023-09-06T07:51:57.786Z,84.38
2023-09-06T07:52:57.761Z,90.00
2023-09-06T07:53:57.773Z,90.00
2023-09-06T07:54:57.735Z,90.00
2023-09-06T07:55:57.740Z,90.00
2023-09-06T07:56:57.738Z,90.00
2023-09-06T07:57:57.720Z,90.00
2023-09-06T07:58:57.728Z,90.00
2023-09-06T07:59:57.677Z,90.00
2023-09-06T08:01:14.857Z,90.00
2023-09-06T08:01:57.719Z,90.00
2023-09-06T08:02:57.715Z,84.38
2023-09-06T08:03:57.838Z,84.38
2023-09-06T08:04:57.670Z,90.00
2023-09-06T08:05:57.720Z,90.00
2023-09-06T08:06:57.754Z,90.00
2023-09-06T08:07:57.593Z,90.00
2023-09-06T08:08:57.589Z,95.62
2023-09-06T08:09:57.570Z,95.62
2023-09-06T08:10:57.552Z,95.62
2023-09-06T08:11:57.642Z,90.00
2023-09-06T08:12:57.531Z,95.62
2023-09-06T08:13:57.544Z,90.00
2023-09-06T08:14:57.600Z,84.38
2023-09-06T08:15:57.493Z,84.38
2023-09-06T08:16:57.564Z,90.00
2023-09-06T08:17:57.547Z,90.00
2023-09-06T08:18:57.507Z,90.00
2023-09-06T08:19:57.457Z,90.00
2023-09-06T08:20:57.593Z,84.38
2023-09-06T08:21:57.445Z,84.38
2023-09-06T08:22:57.459Z,90.00
2023-09-06T08:23:57.458Z,84.38
2023-09-06T08:24:57.398Z,84.38
2023-09-06T08:25:57.480Z,84.38
2023-09-06T08:26:57.386Z,95.62
2023-09-06T08:27:57.397Z,106.88
2023-09-06T08:28:57.399Z,101.25
2023-09-06T08:29:57.574Z,95.62
2023-09-06T08:30:57.422Z,95.62
2023-09-06T08:31:57.363Z,90.00
2023-09-06T08:32:57.437Z,90.00
2023-09-06T08:33:57.382Z,90.00
2023-09-06T08:34:57.294Z,118.12
2023-09-06T08:35:57.324Z,157.50
2023-09-06T08:36:57.267Z,495.00
2023-09-06T08:37:57.251Z,315.00
2023-09-06T08:38:57.282Z,196.88
2023-09-06T08:39:57.322Z,427.50
2023-09-06T08:40:57.222Z,635.62
2023-09-06T08:41:57.240Z,258.75
2023-09-06T08:42:57.236Z,129.38
2023-09-06T08:43:57.195Z,101.25
2023-09-06T08:44:57.188Z,90.00
2023-09-06T08:45:59.160Z,84.38
2023-09-06T08:46:57.236Z,84.38
2023-09-06T08:47:57.152Z,84.38
2023-09-06T08:48:57.295Z,90.00
2023-09-06T08:49:57.128Z,90.00
2023-09-06T08:50:57.168Z,90.00
2023-09-06T08:51:57.112Z,95.62
2023-09-06T08:52:57.125Z,101.25
2023-09-06T08:53:57.111Z,118.12
2023-09-06T08:54:57.078Z,213.75
2023-09-06T08:55:57.085Z,596.25
2023-09-06T08:56:57.059Z,478.12
2023-09-06T08:57:57.075Z,135.00
2023-09-06T08:58:57.034Z,129.38
2023-09-06T08:59:57.020Z,168.75
2023-09-06T09:00:57.102Z,298.12
2023-09-06T09:01:57.229Z,410.62
2023-09-06T09:02:57.096Z,410.62
2023-09-06T09:03:57.127Z,174.38
2023-09-06T09:05:09.569Z,118.12
2023-09-06T09:05:57.980Z,118.12
2023-09-06T09:06:56.981Z,118.12
2023-09-06T09:07:56.970Z,129.38
2023-09-06T09:08:56.924Z,123.75
2023-09-06T09:09:56.937Z,118.12
2023-09-06T09:10:56.908Z,135.00
2023-09-06T09:11:56.901Z,129.38
2023-09-06T09:12:56.956Z,129.38
2023-09-06T09:13:56.872Z,118.12
2023-09-06T09:14:59.127Z,123.75
2023-09-06T09:15:57.973Z,146.25
2023-09-06T09:16:56.938Z,140.62
2023-09-06T09:17:59.820Z,129.38
2023-09-06T09:18:56.879Z,129.38
2023-09-06T09:19:56.810Z,129.38
2023-09-06T09:20:56.801Z,129.38
2023-09-06T09:21:56.785Z,129.38
2023-09-06T09:22:56.809Z,163.12
2023-09-06T09:23:57.077Z,196.88
2023-09-06T09:24:56.840Z,196.88
2023-09-06T09:25:56.748Z,157.50
2023-09-06T09:26:56.738Z,360.00
2023-09-06T09:27:56.761Z,1091.25
2023-09-06T09:28:56.746Z,1108.12
2023-09-06T09:29:56.696Z,691.88
2023-09-06T09:30:56.764Z,247.50
2023-09-06T09:31:56.675Z,151.88
2023-09-06T09:32:56.742Z,360.00
2023-09-06T09:33:56.799Z,720.00
2023-09-06T09:34:56.646Z,365.62
2023-09-06T09:35:56.689Z,360.00
2023-09-06T09:36:56.634Z,1141.88
2023-09-06T09:37:56.617Z,742.50
2023-09-06T09:38:56.602Z,258.75
2023-09-06T09:39:56.601Z,247.50
2023-09-06T09:40:56.617Z,247.50
2023-09-06T09:41:59.777Z,208.12
2023-09-06T09:42:56.558Z,241.88
2023-09-06T09:43:56.549Z,298.12
2023-09-06T09:44:56.548Z,405.00
2023-09-06T09:45:56.561Z,618.75
2023-09-06T09:46:56.527Z,905.62
2023-09-06T09:47:56.601Z,697.50
2023-09-06T09:48:56.501Z,219.38
2023-09-06T09:49:56.510Z,180.00
2023-09-06T09:50:56.540Z,253.12
2023-09-06T09:51:56.458Z,253.12
2023-09-06T09:52:57.202Z,264.38
2023-09-06T09:53:57.443Z,208.12
2023-09-06T09:54:56.456Z,191.25
2023-09-06T09:55:56.442Z,270.00
2023-09-06T09:56:56.444Z,371.25
2023-09-06T09:57:56.393Z,1125.00
2023-09-06T09:58:56.394Z,1125.00
2023-09-06T09:59:56.467Z,2092.50
2023-09-06T10:00:58.167Z,2306.25
2023-09-06T10:01:56.387Z,2340.00
2023-09-06T10:02:59.385Z,1507.50
2023-09-06T10:03:56.526Z,483.75
2023-09-06T10:04:56.480Z,843.75
2023-09-06T10:05:56.373Z,2115.00
2023-09-06T10:06:56.324Z,2120.62
2023-09-06T10:07:56.295Z,545.62
2023-09-06T10:08:56.337Z,146.25
2023-09-06T10:09:56.272Z,140.62
2023-09-06T10:10:56.272Z,129.38
2023-09-06T10:11:56.247Z,118.12
2023-09-06T10:12:56.269Z,112.50
2023-09-06T10:13:57.660Z,118.12
2023-09-06T10:14:56.216Z,118.12
2023-09-06T10:15:56.335Z,112.50
2023-09-06T10:16:56.298Z,101.25
2023-09-06T10:17:56.220Z,101.25
2023-09-06T10:18:56.237Z,123.75
2023-09-06T10:19:56.164Z,95.62
2023-09-06T10:20:56.159Z,95.62
2023-09-06T10:21:56.278Z,95.62
2023-09-06T10:22:56.179Z,118.12
2023-09-06T10:23:56.170Z,236.25
2023-09-06T10:24:56.110Z,337.50
2023-09-06T10:25:56.098Z,123.75
2023-09-06T10:26:56.105Z,140.62
2023-09-06T10:27:56.266Z,90.00
2023-09-06T10:28:56.097Z,101.25
2023-09-06T10:30:56.137Z,540.00
2023-09-06T10:31:56.108Z,95.62
2023-09-06T10:32:56.089Z,90.00
2023-09-06T10:33:56.014Z,90.00
2023-09-06T10:34:56.029Z,163.12
2023-09-06T10:35:56.035Z,309.38
2023-09-06T10:36:56.086Z,241.88
2023-09-06T10:37:56.006Z,174.38
2023-09-06T10:38:55.957Z,90.00
2023-09-06T10:39:55.995Z,90.00
2023-09-06T10:40:55.936Z,90.00
2023-09-06T10:41:55.926Z,90.00
2023-09-06T10:42:55.916Z,90.00
2023-09-06T10:43:55.907Z,90.00
2023-09-06T10:44:55.968Z,90.00
2023-09-06T10:45:55.988Z,534.38
2023-09-06T10:46:55.981Z,90.00
2023-09-06T10:47:55.924Z,90.00
2023-09-06T10:48:55.880Z,90.00
2023-09-06T10:49:55.859Z,90.00
2023-09-06T10:50:55.831Z,106.88
2023-09-06T10:51:55.863Z,90.00
2023-09-06T10:52:55.807Z,90.00
2023-09-06T10:53:55.848Z,90.00
2023-09-06T10:54:55.883Z,118.12
2023-09-06T10:55:55.819Z,95.62
2023-09-06T10:56:55.768Z,73.12
2023-09-06T10:57:55.839Z,84.38
2023-09-06T10:58:55.750Z,84.38
2023-09-06T10:59:55.829Z,78.75
2023-09-06T11:00:55.819Z,84.38
2023-09-06T11:01:56.501Z,78.75
2023-09-06T11:02:55.846Z,78.75
2023-09-06T11:03:55.709Z,78.75
2023-09-06T11:04:55.748Z,84.38
2023-09-06T11:05:55.668Z,84.38
2023-09-06T11:06:55.717Z,84.38
2023-09-06T11:07:55.724Z,84.38
2023-09-06T11:08:55.667Z,84.38
2023-09-06T11:09:55.702Z,78.75
2023-09-06T11:10:55.602Z,84.38
2023-09-06T11:11:55.600Z,78.75
2023-09-06T11:12:55.890Z,84.38
2023-09-06T11:13:55.577Z,84.38
2023-09-06T11:14:55.604Z,84.38
2023-09-06T11:15:55.616Z,78.75
2023-09-06T11:16:55.601Z,78.75
2023-09-06T11:17:55.657Z,78.75
2023-09-06T11:18:55.521Z,78.75
2023-09-06T11:19:55.512Z,78.75
2023-09-06T11:20:55.608Z,78.75
2023-09-06T11:21:55.495Z,78.75
2023-09-06T11:22:55.512Z,78.75
2023-09-06T11:23:55.556Z,78.75
2023-09-06T11:24:55.490Z,78.75
2023-09-06T11:25:55.468Z,90.00
2023-09-06T11:26:55.445Z,281.25
2023-09-06T11:27:55.450Z,275.62
2023-09-06T11:28:55.419Z,84.38
2023-09-06T11:29:55.396Z,84.38
2023-09-06T11:30:55.389Z,84.38
2023-09-06T11:31:55.380Z,84.38
2023-09-06T11:32:55.452Z,78.75
2023-09-06T11:33:55.390Z,84.38
2023-09-06T11:34:55.339Z,78.75
2023-09-06T11:35:55.333Z,78.75
2023-09-06T11:36:55.341Z,78.75
2023-09-06T11:37:55.344Z,78.75
2023-09-06T11:38:55.323Z,78.75
2023-09-06T11:39:55.328Z,78.75
2023-09-06T11:40:55.276Z,78.75
2023-09-06T11:41:55.392Z,78.75
2023-09-06T11:42:55.281Z,157.50
2023-09-06T11:43:55.246Z,95.62
2023-09-06T11:44:55.271Z,84.38
2023-09-06T11:45:55.221Z,225.00
2023-09-06T11:46:55.310Z,90.00
2023-09-06T11:47:55.335Z,78.75
2023-09-06T11:48:55.196Z,78.75
2023-09-06T11:49:55.244Z,84.38
2023-09-06T11:50:55.179Z,90.00
2023-09-06T11:51:55.460Z,90.00
2023-09-06T11:52:57.970Z,95.62
2023-09-06T11:53:55.374Z,90.00
2023-09-06T11:54:55.118Z,106.88
2023-09-06T11:55:55.113Z,129.38
2023-09-06T11:56:55.128Z,112.50
2023-09-06T11:57:55.114Z,112.50
2023-09-06T11:58:55.083Z,112.50
2023-09-06T12:00:55.143Z,106.88
2023-09-06T12:01:55.115Z,112.50
2023-09-06T12:02:55.132Z,112.50
2023-09-06T12:03:55.168Z,106.88
2023-09-06T12:04:55.011Z,106.88
2023-09-06T12:05:55.048Z,106.88
2023-09-06T12:06:55.006Z,106.88
2023-09-06T12:07:55.012Z,118.12
2023-09-06T12:08:55.017Z,101.25
2023-09-06T12:09:54.978Z,95.62
2023-09-06T12:10:54.945Z,95.62
2023-09-06T12:11:55.016Z,90.00
2023-09-06T12:12:54.923Z,90.00
2023-09-06T12:13:54.949Z,90.00
2023-09-06T12:14:54.989Z,90.00
2023-09-06T12:15:54.894Z,90.00
2023-09-06T12:16:54.939Z,90.00
2023-09-06T12:17:54.943Z,90.00
2023-09-06T12:18:54.996Z,90.00
2023-09-06T12:19:54.855Z,90.00
2023-09-06T12:20:54.887Z,90.00
2023-09-06T12:21:54.835Z,90.00
2023-09-06T12:22:54.829Z,90.00
2023-09-06T12:23:54.887Z,95.62
2023-09-06T12:24:54.793Z,90.00
2023-09-06T12:25:54.786Z,90.00
2023-09-06T12:26:54.839Z,202.50
2023-09-06T12:27:54.784Z,1417.50
2023-09-06T12:28:54.782Z,1884.38
2023-09-06T12:29:54.953Z,1569.38
2023-09-06T12:30:54.767Z,703.12
2023-09-06T12:31:54.779Z,832.50
2023-09-06T12:32:54.895Z,258.75
2023-09-06T12:33:54.784Z,534.38
2023-09-06T12:34:54.692Z,635.62
2023-09-06T12:35:54.703Z,101.25
2023-09-06T12:36:54.657Z,112.50
2023-09-06T12:37:54.652Z,106.88
2023-09-06T12:38:54.669Z,95.62
2023-09-06T12:39:54.647Z,95.62
2023-09-06T12:40:54.621Z,90.00
2023-09-06T12:41:54.643Z,95.62
2023-09-06T12:42:54.607Z,101.25
2023-09-06T12:43:54.614Z,101.25
2023-09-06T12:44:54.631Z,101.25
2023-09-06T12:45:54.591Z,106.88
2023-09-06T12:46:54.612Z,112.50
2023-09-06T12:47:54.622Z,106.88
2023-09-06T12:48:54.710Z,101.25
2023-09-06T12:49:54.546Z,112.50
2023-09-06T12:50:57.772Z,106.88
2023-09-06T12:51:54.504Z,101.25
2023-09-06T12:52:54.493Z,191.25
2023-09-06T12:53:54.566Z,568.12
2023-09-06T12:54:54.469Z,135.00
2023-09-06T12:55:54.476Z,106.88
2023-09-06T12:56:54.537Z,146.25
2023-09-06T12:57:54.442Z,163.12